Terminal Aerodrome Forecast
Issued by NWS

Home | Current Version | Previous Version | Text Only | Print | Product List | Glossary On
Versions: 1 2 3 4 5 6 7 8 9 10 11 12 13 14 15 16 17 18
463
FTUS46 KEKA 240544 CCA
TAFCEC
TAF COR
KCEC 240544Z 2406/2506 35009KT P6SM SKC
      TEMPO 2406/2408 5SM BR
     FM241100 33005KT P6SM SKC
     FM241900 33014G21KT P6SM SKC
     FM250500 34009KT P6SM FEW005=

USA.gov is the U.S. government's official web portal to all federal, state and local government web resources and services.